sensor_id;sensor_type;location;lat;lon;timestamp;temperature;humidity
71297;SHT31;59082;50.658;4.608;2022-08-04T00:00:30;22.89;76.83
71297;SHT31;59082;50.658;4.608;2022-08-04T00:09:09;22.87;76.95
71297;SHT31;59082;50.658;4.608;2022-08-04T00:11:20;22.96;75.43
71297;SHT31;59082;50.658;4.608;2022-08-04T00:13:53;23.11;74.36
71297;SHT31;59082;50.658;4.608;2022-08-04T00:16:21;23.21;74.39
71297;SHT31;59082;50.658;4.608;2022-08-04T00:19:15;23.21;74.70
71297;SHT31;59082;50.658;4.608;2022-08-04T00:21:38;23.20;74.51
71297;SHT31;59082;50.658;4.608;2022-08-04T00:24:07;23.24;74.22
71297;SHT31;59082;50.658;4.608;2022-08-04T00:26:35;23.22;74.03
71297;SHT31;59082;50.658;4.608;2022-08-04T00:29:01;23.27;73.92
71297;SHT31;59082;50.658;4.608;2022-08-04T00:31:26;23.30;73.60
71297;SHT31;59082;50.658;4.608;2022-08-04T00:33:53;23.31;73.74
71297;SHT31;59082;50.658;4.608;2022-08-04T00:36:19;23.38;73.27
71297;SHT31;59082;50.658;4.608;2022-08-04T00:38:45;23.31;73.59
71297;SHT31;59082;50.658;4.608;2022-08-04T00:41:18;23.34;73.46
71297;SHT31;59082;50.658;4.608;2022-08-04T00:49:27;22.55;78.89
71297;SHT31;59082;50.658;4.608;2022-08-04T00:52:32;22.39;79.22
71297;SHT31;59082;50.658;4.608;2022-08-04T01:00:16;22.04;79.61
71297;SHT31;59082;50.658;4.608;2022-08-04T01:16:26;21.69;80.09
71297;SHT31;59082;50.658;4.608;2022-08-04T01:19:00;21.60;80.20
71297;SHT31;59082;50.658;4.608;2022-08-04T01:21:48;21.51;80.36
71297;SHT31;59082;50.658;4.608;2022-08-04T01:29:49;21.30;81.08
71297;SHT31;59082;50.658;4.608;2022-08-04T01:32:22;21.22;81.38
71297;SHT31;59082;50.658;4.608;2022-08-04T01:34:52;21.19;81.70
71297;SHT31;59082;50.658;4.608;2022-08-04T01:40:12;21.08;82.08
71297;SHT31;59082;50.658;4.608;2022-08-04T01:42:40;21.05;82.38
71297;SHT31;59082;50.658;4.608;2022-08-04T01:45:10;21.01;82.69
71297;SHT31;59082;50.658;4.608;2022-08-04T01:47:39;20.99;82.95
71297;SHT31;59082;50.658;4.608;2022-08-04T01:50:11;20.96;82.53
71297;SHT31;59082;50.658;4.608;2022-08-04T01:52:38;20.94;82.62
71297;SHT31;59082;50.658;4.608;2022-08-04T01:55:06;20.94;82.28
71297;SHT31;59082;50.658;4.608;2022-08-04T01:57:41;20.88;82.37
71297;SHT31;59082;50.658;4.608;2022-08-04T02:00:07;20.80;82.57
71297;SHT31;59082;50.658;4.608;2022-08-04T02:02:33;20.75;82.58
71297;SHT31;59082;50.658;4.608;2022-08-04T02:04:59;20.71;82.71
71297;SHT31;59082;50.658;4.608;2022-08-04T02:10:25;20.70;82.74
71297;SHT31;59082;50.658;4.608;2022-08-04T02:12:57;20.65;82.96
71297;SHT31;59082;50.658;4.608;2022-08-04T02:15:30;20.64;83.05
71297;SHT31;59082;50.658;4.608;2022-08-04T02:18:17;20.63;82.96
71297;SHT31;59082;50.658;4.608;2022-08-04T02:20:45;20.65;82.94
71297;SHT31;59082;50.658;4.608;2022-08-04T02:25:57;20.63;82.86
71297;SHT31;59082;50.658;4.608;2022-08-04T02:28:46;20.58;82.85
71297;SHT31;59082;50.658;4.608;2022-08-04T02:31:18;20.61;82.70
71297;SHT31;59082;50.658;4.608;2022-08-04T02:36:29;20.63;82.69
71297;SHT31;59082;50.658;4.608;2022-08-04T02:38:58;20.60;82.75
71297;SHT31;59082;50.658;4.608;2022-08-04T02:41:25;20.60;82.66
71297;SHT31;59082;50.658;4.608;2022-08-04T02:43:55;20.64;82.34
71297;SHT31;59082;50.658;4.608;2022-08-04T02:46:21;20.63;82.51
71297;SHT31;59082;50.658;4.608;2022-08-04T02:48:48;20.63;82.56
71297;SHT31;59082;50.658;4.608;2022-08-04T02:51:16;20.64;82.40
71297;SHT31;59082;50.658;4.608;2022-08-04T02:53:42;20.67;82.34
71297;SHT31;59082;50.658;4.608;2022-08-04T02:56:08;20.64;82.43
71297;SHT31;59082;50.658;4.608;2022-08-04T02:58:36;20.58;82.73
71297;SHT31;59082;50.658;4.608;2022-08-04T03:01:05;20.56;83.20
71297;SHT31;59082;50.658;4.608;2022-08-04T03:03:39;20.53;83.58
71297;SHT31;59082;50.658;4.608;2022-08-04T03:27:23;20.39;85.94
71297;SHT31;59082;50.658;4.608;2022-08-04T03:30:12;20.37;86.24
71297;SHT31;59082;50.658;4.608;2022-08-04T03:41:04;20.32;87.24
71297;SHT31;59082;50.658;4.608;2022-08-04T04:27:41;19.75;90.71
71297;SHT31;59082;50.658;4.608;2022-08-04T04:30:17;19.77;90.99
71297;SHT31;59082;50.658;4.608;2022-08-04T04:33:24;19.79;91.12
71297;SHT31;59082;50.658;4.608;2022-08-04T04:38:53;19.92;91.18
71297;SHT31;59082;50.658;4.608;2022-08-04T04:44:08;20.05;91.14
71297;SHT31;59082;50.658;4.608;2022-08-04T04:46:49;20.12;91.13
71297;SHT31;59082;50.658;4.608;2022-08-04T04:49:53;20.19;91.22
71297;SHT31;59082;50.658;4.608;2022-08-04T04:52:35;20.29;91.01
71297;SHT31;59082;50.658;4.608;2022-08-04T04:55:21;20.32;89.87
71297;SHT31;59082;50.658;4.608;2022-08-04T04:57:50;20.33;89.46
71297;SHT31;59082;50.658;4.608;2022-08-04T05:00:17;20.37;90.53
71297;SHT31;59082;50.658;4.608;2022-08-04T05:03:08;20.41;90.05
71297;SHT31;59082;50.658;4.608;2022-08-04T05:08:42;20.50;90.00
71297;SHT31;59082;50.658;4.608;2022-08-04T05:14:12;20.56;89.31
71297;SHT31;59082;50.658;4.608;2022-08-04T05:17:14;20.61;89.28
71297;SHT31;59082;50.658;4.608;2022-08-04T05:22:54;20.74;89.05
71297;SHT31;59082;50.658;4.608;2022-08-04T05:25:29;20.80;89.30
71297;SHT31;59082;50.658;4.608;2022-08-04T05:28:38;20.75;89.61
71297;SHT31;59082;50.658;4.608;2022-08-04T05:31:18;20.77;89.54
71297;SHT31;59082;50.658;4.608;2022-08-04T05:33:55;20.83;89.59
71297;SHT31;59082;50.658;4.608;2022-08-04T05:36:29;20.84;89.56
71297;SHT31;59082;50.658;4.608;2022-08-04T05:38:57;20.80;89.56
71297;SHT31;59082;50.658;4.608;2022-08-04T05:41:26;20.87;89.63
71297;SHT31;59082;50.658;4.608;2022-08-04T05:43:52;21.05;89.19
71297;SHT31;59082;50.658;4.608;2022-08-04T05:46:18;21.22;88.93
71297;SHT31;59082;50.658;4.608;2022-08-04T05:48:44;21.49;88.24
71297;SHT31;59082;50.658;4.608;2022-08-04T05:51:11;21.77;87.55
71297;SHT31;59082;50.658;4.608;2022-08-04T05:53:38;22.02;87.00
71297;SHT31;59082;50.658;4.608;2022-08-04T05:56:07;22.02;86.32
71297;SHT31;59082;50.658;4.608;2022-08-04T05:58:33;22.02;85.72
71297;SHT31;59082;50.658;4.608;2022-08-04T06:01:00;21.93;85.96
71297;SHT31;59082;50.658;4.608;2022-08-04T06:03:28;21.86;86.35
71297;SHT31;59082;50.658;4.608;2022-08-04T06:05:56;21.66;86.09
71297;SHT31;59082;50.658;4.608;2022-08-04T06:08:23;21.63;86.52
71297;SHT31;59082;50.658;4.608;2022-08-04T06:10:50;21.61;86.28
71297;SHT31;59082;50.658;4.608;2022-08-04T06:13:20;21.54;86.42
71297;SHT31;59082;50.658;4.608;2022-08-04T06:15:52;21.61;86.73
71297;SHT31;59082;50.658;4.608;2022-08-04T06:18:19;21.64;86.92
71297;SHT31;59082;50.658;4.608;2022-08-04T06:20:46;21.87;86.79
71297;SHT31;59082;50.658;4.608;2022-08-04T06:23:14;21.87;86.99
71297;SHT31;59082;50.658;4.608;2022-08-04T06:25:45;22.11;86.66
71297;SHT31;59082;50.658;4.608;2022-08-04T06:28:12;22.08;86.92
71297;SHT31;59082;50.658;4.608;2022-08-04T06:30:40;22.17;86.41
71297;SHT31;59082;50.658;4.608;2022-08-04T06:33:08;22.24;86.49
71297;SHT31;59082;50.658;4.608;2022-08-04T06:35:58;22.29;86.09
71297;SHT31;59082;50.658;4.608;2022-08-04T06:38:26;22.24;86.08
71297;SHT31;59082;50.658;4.608;2022-08-04T06:40:53;22.09;86.06
71297;SHT31;59082;50.658;4.608;2022-08-04T06:43:22;22.09;86.49
71297;SHT31;59082;50.658;4.608;2022-08-04T06:45:49;22.17;85.18
71297;SHT31;59082;50.658;4.608;2022-08-04T06:48:16;22.48;84.56
71297;SHT31;59082;50.658;4.608;2022-08-04T06:50:44;22.62;84.38
71297;SHT31;59082;50.658;4.608;2022-08-04T06:53:11;22.67;82.95
71297;SHT31;59082;50.658;4.608;2022-08-04T06:55:38;22.99;82.66
71297;SHT31;59082;50.658;4.608;2022-08-04T06:58:05;22.99;81.74
71297;SHT31;59082;50.658;4.608;2022-08-04T07:00:32;23.21;81.67
71297;SHT31;59082;50.658;4.608;2022-08-04T07:02:59;23.42;81.10
71297;SHT31;59082;50.658;4.608;2022-08-04T07:05:25;24.04;79.83
71297;SHT31;59082;50.658;4.608;2022-08-04T07:07:50;24.40;78.35
71297;SHT31;59082;50.658;4.608;2022-08-04T07:10:17;24.95;76.72
71297;SHT31;59082;50.658;4.608;2022-08-04T07:12:44;24.76;76.95
71297;SHT31;59082;50.658;4.608;2022-08-04T07:15:10;24.73;76.67
71297;SHT31;59082;50.658;4.608;2022-08-04T07:17:36;24.73;76.15
71297;SHT31;59082;50.658;4.608;2022-08-04T07:20:04;24.48;75.95
71297;SHT31;59082;50.658;4.608;2022-08-04T07:22:30;24.14;76.89
71297;SHT31;59082;50.658;4.608;2022-08-04T07:24:56;24.30;76.36
71297;SHT31;59082;50.658;4.608;2022-08-04T07:27:23;24.16;76.55
71297;SHT31;59082;50.658;4.608;2022-08-04T07:29:50;24.31;76.63
71297;SHT31;59082;50.658;4.608;2022-08-04T07:32:19;24.21;77.42
71297;SHT31;59082;50.658;4.608;2022-08-04T07:34:46;24.51;77.20
71297;SHT31;59082;50.658;4.608;2022-08-04T07:37:13;24.60;76.51
71297;SHT31;59082;50.658;4.608;2022-08-04T07:39:39;24.58;76.82
71297;SHT31;59082;50.658;4.608;2022-08-04T07:42:05;24.68;76.88
71297;SHT31;59082;50.658;4.608;2022-08-04T07:44:31;24.78;76.28
71297;SHT31;59082;50.658;4.608;2022-08-04T07:46:57;24.68;76.35
71297;SHT31;59082;50.658;4.608;2022-08-04T07:49:23;24.89;75.55
71297;SHT31;59082;50.658;4.608;2022-08-04T07:51:52;25.22;75.09
71297;SHT31;59082;50.658;4.608;2022-08-04T07:54:18;25.31;75.00
71297;SHT31;59082;50.658;4.608;2022-08-04T07:56:44;25.27;75.21
71297;SHT31;59082;50.658;4.608;2022-08-04T07:59:10;25.06;74.24
71297;SHT31;59082;50.658;4.608;2022-08-04T08:01:37;25.13;74.55
71297;SHT31;59082;50.658;4.608;2022-08-04T08:04:05;25.26;74.72
71297;SHT31;59082;50.658;4.608;2022-08-04T08:06:34;25.46;74.20
71297;SHT31;59082;50.658;4.608;2022-08-04T08:09:05;25.41;74.45
71297;SHT31;59082;50.658;4.608;2022-08-04T08:11:31;25.17;75.32
71297;SHT31;59082;50.658;4.608;2022-08-04T08:13:57;25.44;74.50
71297;SHT31;59082;50.658;4.608;2022-08-04T08:16:23;26.01;73.33
71297;SHT31;59082;50.658;4.608;2022-08-04T08:18:49;26.09;73.06
71297;SHT31;59082;50.658;4.608;2022-08-04T08:21:14;26.37;72.59
71297;SHT31;59082;50.658;4.608;2022-08-04T08:23:43;26.36;72.39
71297;SHT31;59082;50.658;4.608;2022-08-04T08:26:08;25.67;73.08
71297;SHT31;59082;50.658;4.608;2022-08-04T08:28:34;25.61;73.68
71297;SHT31;59082;50.658;4.608;2022-08-04T08:31:00;25.27;74.32
71297;SHT31;59082;50.658;4.608;2022-08-04T08:33:26;25.28;74.35
71297;SHT31;59082;50.658;4.608;2022-08-04T08:36:02;25.16;74.78
71297;SHT31;59082;50.658;4.608;2022-08-04T08:38:43;25.24;74.69
71297;SHT31;59082;50.658;4.608;2022-08-04T08:44:28;25.06;75.16
71297;SHT31;59082;50.658;4.608;2022-08-04T08:58:22;24.96;76.51
71297;SHT31;59082;50.658;4.608;2022-08-04T09:17:39;24.03;78.83
71297;SHT31;59082;50.658;4.608;2022-08-04T09:20:27;23.95;80.31
71297;SHT31;59082;50.658;4.608;2022-08-04T09:23:23;24.07;81.36
71297;SHT31;59082;50.658;4.608;2022-08-04T09:32:19;24.16;79.87
71297;SHT31;59082;50.658;4.608;2022-08-04T09:35:46;23.92;79.72
71297;SHT31;59082;50.658;4.608;2022-08-04T09:38:26;24.21;79.44
71297;SHT31;59082;50.658;4.608;2022-08-04T09:44:43;25.41;76.31
71297;SHT31;59082;50.658;4.608;2022-08-04T09:47:16;26.09;74.83
71297;SHT31;59082;50.658;4.608;2022-08-04T09:58:21;30.19;66.13
71297;SHT31;59082;50.658;4.608;2022-08-04T10:00:52;30.96;63.28
71297;SHT31;59082;50.658;4.608;2022-08-04T10:03:21;31.15;61.96
71297;SHT31;59082;50.658;4.608;2022-08-04T10:12:05;28.17;66.53
71297;SHT31;59082;50.658;4.608;2022-08-04T10:23:35;27.16;68.75
71297;SHT31;59082;50.658;4.608;2022-08-04T10:26:19;27.21;69.37
71297;SHT31;59082;50.658;4.608;2022-08-04T10:28:54;27.25;69.32
71297;SHT31;59082;50.658;4.608;2022-08-04T10:31:27;27.70;68.27
71297;SHT31;59082;50.658;4.608;2022-08-04T10:34:02;27.86;68.32
71297;SHT31;59082;50.658;4.608;2022-08-04T10:36:50;27.29;70.09
71297;SHT31;59082;50.658;4.608;2022-08-04T10:39:38;27.24;70.25
71297;SHT31;59082;50.658;4.608;2022-08-04T10:42:16;27.66;69.49
71297;SHT31;59082;50.658;4.608;2022-08-04T10:46:04;27.80;68.77
71297;SHT31;59082;50.658;4.608;2022-08-04T10:48:06;28.32;68.27
71297;SHT31;59082;50.658;4.608;2022-08-04T10:50:35;28.86;67.14
71297;SHT31;59082;50.658;4.608;2022-08-04T10:53:18;28.80;66.98
71297;SHT31;59082;50.658;4.608;2022-08-04T10:55:58;28.32;67.40
71297;SHT31;59082;50.658;4.608;2022-08-04T10:58:34;28.55;67.29
71297;SHT31;59082;50.658;4.608;2022-08-04T11:01:04;29.47;66.06
71297;SHT31;59082;50.658;4.608;2022-08-04T11:03:57;29.04;65.87
71297;SHT31;59082;50.658;4.608;2022-08-04T11:06:25;28.39;66.61
71297;SHT31;59082;50.658;4.608;2022-08-04T11:08:54;27.97;68.18
71297;SHT31;59082;50.658;4.608;2022-08-04T11:13:46;27.89;67.77
71297;SHT31;59082;50.658;4.608;2022-08-04T11:16:21;27.32;69.03
71297;SHT31;59082;50.658;4.608;2022-08-04T11:21:32;27.60;68.65
71297;SHT31;59082;50.658;4.608;2022-08-04T11:24:15;27.43;69.43
71297;SHT31;59082;50.658;4.608;2022-08-04T12:18:58;29.61;68.17
71297;SHT31;59082;50.658;4.608;2022-08-04T12:21:39;30.96;65.18
71297;SHT31;59082;50.658;4.608;2022-08-04T12:24:43;30.88;65.00
71297;SHT31;59082;50.658;4.608;2022-08-04T12:27:17;30.03;66.57
71297;SHT31;59082;50.658;4.608;2022-08-04T12:29:45;29.92;66.90
71297;SHT31;59082;50.658;4.608;2022-08-04T12:32:24;30.00;66.45
71297;SHT31;59082;50.658;4.608;2022-08-04T12:40:12;32.64;61.59
71297;SHT31;59082;50.658;4.608;2022-08-04T12:42:47;33.90;59.11
71297;SHT31;59082;50.658;4.608;2022-08-04T12:45:18;35.92;55.41
71297;SHT31;59082;50.658;4.608;2022-08-04T12:47:45;36.60;54.16
71297;SHT31;59082;50.658;4.608;2022-08-04T12:50:13;36.88;53.67
71297;SHT31;59082;50.658;4.608;2022-08-04T12:52:46;38.05;51.89
71297;SHT31;59082;50.658;4.608;2022-08-04T12:55:12;40.96;48.39
71297;SHT31;59082;50.658;4.608;2022-08-04T12:57:40;43.30;44.41
71297;SHT31;59082;50.658;4.608;2022-08-04T13:00:07;41.38;46.83
71297;SHT31;59082;50.658;4.608;2022-08-04T13:02:37;44.36;43.84
71297;SHT31;59082;50.658;4.608;2022-08-04T13:05:06;43.06;44.37
71297;SHT31;59082;50.658;4.608;2022-08-04T13:07:38;44.97;42.89
71297;SHT31;59082;50.658;4.608;2022-08-04T13:10:15;41.75;46.45
71297;SHT31;59082;50.658;4.608;2022-08-04T13:12:43;41.78;45.95
71297;SHT31;59082;50.658;4.608;2022-08-04T13:15:17;42.09;46.44
71297;SHT31;59082;50.658;4.608;2022-08-04T13:17:58;42.27;45.11
71297;SHT31;59082;50.658;4.608;2022-08-04T13:20:32;40.96;47.16
71297;SHT31;59082;50.658;4.608;2022-08-04T13:25:35;45.44;41.61
71297;SHT31;59082;50.658;4.608;2022-08-04T13:28:05;39.10;48.63
71297;SHT31;59082;50.658;4.608;2022-08-04T13:30:33;37.54;51.92
71297;SHT31;59082;50.658;4.608;2022-08-04T13:33:02;39.25;49.44
71297;SHT31;59082;50.658;4.608;2022-08-04T13:35:29;42.50;44.55
71297;SHT31;59082;50.658;4.608;2022-08-04T13:37:57;40.35;46.47
71297;SHT31;59082;50.658;4.608;2022-08-04T13:40:26;42.74;45.01
71297;SHT31;59082;50.658;4.608;2022-08-04T13:42:52;43.03;44.74
71297;SHT31;59082;50.658;4.608;2022-08-04T13:45:23;40.86;46.86
71297;SHT31;59082;50.658;4.608;2022-08-04T13:47:51;38.16;49.83
71297;SHT31;59082;50.658;4.608;2022-08-04T13:50:25;41.39;46.64
71297;SHT31;59082;50.658;4.608;2022-08-04T13:52:54;39.43;48.08
71297;SHT31;59082;50.658;4.608;2022-08-04T13:55:24;39.68;48.11
71297;SHT31;59082;50.658;4.608;2022-08-04T13:58:13;42.89;44.66
71297;SHT31;59082;50.658;4.608;2022-08-04T14:01:09;39.91;47.23
71297;SHT31;59082;50.658;4.608;2022-08-04T14:03:38;37.66;50.19
71297;SHT31;59082;50.658;4.608;2022-08-04T14:06:19;33.80;55.17
71297;SHT31;59082;50.658;4.608;2022-08-04T14:08:53;34.64;53.93
71297;SHT31;59082;50.658;4.608;2022-08-04T14:11:33;34.13;55.13
71297;SHT31;59082;50.658;4.608;2022-08-04T14:14:00;33.97;55.19
71297;SHT31;59082;50.658;4.608;2022-08-04T14:16:26;34.89;53.89
71297;SHT31;59082;50.658;4.608;2022-08-04T14:18:59;43.94;42.44
71297;SHT31;59082;50.658;4.608;2022-08-04T14:21:26;47.73;38.92
71297;SHT31;59082;50.658;4.608;2022-08-04T14:23:54;50.39;36.97
71297;SHT31;59082;50.658;4.608;2022-08-04T14:26:30;44.66;40.90
71297;SHT31;59082;50.658;4.608;2022-08-04T14:29:13;47.52;37.86
71297;SHT31;59082;50.658;4.608;2022-08-04T14:31:39;42.06;43.26
71297;SHT31;59082;50.658;4.608;2022-08-04T14:34:06;41.58;44.83
71297;SHT31;59082;50.658;4.608;2022-08-04T14:36:42;39.77;46.28
71297;SHT31;59082;50.658;4.608;2022-08-04T14:39:08;37.06;49.72
71297;SHT31;59082;50.658;4.608;2022-08-04T14:41:44;39.84;45.80
71297;SHT31;59082;50.658;4.608;2022-08-04T14:44:10;41.21;45.48
71297;SHT31;59082;50.658;4.608;2022-08-04T14:46:53;48.14;38.78
71297;SHT31;59082;50.658;4.608;2022-08-04T14:49:19;46.15;39.98
71297;SHT31;59082;50.658;4.608;2022-08-04T14:54:28;48.76;37.63
71297;SHT31;59082;50.658;4.608;2022-08-04T14:56:56;45.06;40.43
71297;SHT31;59082;50.658;4.608;2022-08-04T14:59:23;45.63;41.04
71297;SHT31;59082;50.658;4.608;2022-08-04T15:01:50;50.08;37.16
71297;SHT31;59082;50.658;4.608;2022-08-04T15:04:16;51.01;35.97
71297;SHT31;59082;50.658;4.608;2022-08-04T15:06:42;50.49;37.14
71297;SHT31;59082;50.658;4.608;2022-08-04T15:09:09;52.33;35.00
71297;SHT31;59082;50.658;4.608;2022-08-04T15:11:36;52.28;34.78
71297;SHT31;59082;50.658;4.608;2022-08-04T15:14:03;52.03;34.87
71297;SHT31;59082;50.658;4.608;2022-08-04T15:16:31;53.14;35.04
71297;SHT31;59082;50.658;4.608;2022-08-04T15:18:57;52.52;34.43
71297;SHT31;59082;50.658;4.608;2022-08-04T15:21:25;52.39;35.42
71297;SHT31;59082;50.658;4.608;2022-08-04T15:23:57;53.54;33.78
71297;SHT31;59082;50.658;4.608;2022-08-04T15:26:33;50.45;35.33
71297;SHT31;59082;50.658;4.608;2022-08-04T15:29:15;50.83;35.21
71297;SHT31;59082;50.658;4.608;2022-08-04T15:31:43;50.87;35.48
71297;SHT31;59082;50.658;4.608;2022-08-04T15:34:09;50.05;36.26
71297;SHT31;59082;50.658;4.608;2022-08-04T15:36:53;48.11;37.14
71297;SHT31;59082;50.658;4.608;2022-08-04T15:39:43;46.56;38.97
71297;SHT31;59082;50.658;4.608;2022-08-04T15:42:14;46.81;38.54
71297;SHT31;59082;50.658;4.608;2022-08-04T15:45:11;46.12;39.04
71297;SHT31;59082;50.658;4.608;2022-08-04T15:47:41;49.55;36.36
71297;SHT31;59082;50.658;4.608;2022-08-04T15:50:11;49.09;37.23
71297;SHT31;59082;50.658;4.608;2022-08-04T15:53:03;49.82;36.05
71297;SHT31;59082;50.658;4.608;2022-08-04T15:55:37;45.42;39.73
71297;SHT31;59082;50.658;4.608;2022-08-04T15:58:13;46.13;39.18
71297;SHT31;59082;50.658;4.608;2022-08-04T16:19:07;41.64;44.36
71297;SHT31;59082;50.658;4.608;2022-08-04T16:21:45;41.41;44.44
71297;SHT31;59082;50.658;4.608;2022-08-04T16:24:27;37.85;48.30
71297;SHT31;59082;50.658;4.608;2022-08-04T16:26:58;37.31;49.88
71297;SHT31;59082;50.658;4.608;2022-08-04T16:29:42;34.99;53.50
71297;SHT31;59082;50.658;4.608;2022-08-04T16:32:17;32.88;57.38
71297;SHT31;59082;50.658;4.608;2022-08-04T16:37:15;31.73;59.40
71297;SHT31;59082;50.658;4.608;2022-08-04T16:39:42;30.96;60.17
71297;SHT31;59082;50.658;4.608;2022-08-04T16:45:12;30.24;61.58
71297;SHT31;59082;50.658;4.608;2022-08-04T16:50:17;29.55;62.57
71297;SHT31;59082;50.658;4.608;2022-08-04T16:52:44;29.55;62.68
71297;SHT31;59082;50.658;4.608;2022-08-04T16:55:11;29.59;62.50
71297;SHT31;59082;50.658;4.608;2022-08-04T16:57:37;29.54;62.43
71297;SHT31;59082;50.658;4.608;2022-08-04T17:00:04;29.37;62.90
71297;SHT31;59082;50.658;4.608;2022-08-04T17:02:29;29.04;63.68
71297;SHT31;59082;50.658;4.608;2022-08-04T17:04:55;28.93;64.14
71297;SHT31;59082;50.658;4.608;2022-08-04T17:07:21;28.63;64.79
71297;SHT31;59082;50.658;4.608;2022-08-04T17:09:49;28.52;65.31
71297;SHT31;59082;50.658;4.608;2022-08-04T17:12:15;28.29;65.84
71297;SHT31;59082;50.658;4.608;2022-08-04T17:14:41;28.14;66.19
71297;SHT31;59082;50.658;4.608;2022-08-04T17:17:07;28.27;66.27
71297;SHT31;59082;50.658;4.608;2022-08-04T17:19:32;28.24;66.14
71297;SHT31;59082;50.658;4.608;2022-08-04T17:22:05;27.96;66.69
71297;SHT31;59082;50.658;4.608;2022-08-04T17:24:35;27.73;70.45
71297;SHT31;59082;50.658;4.608;2022-08-04T17:27:02;27.62;69.41
71297;SHT31;59082;50.658;4.608;2022-08-04T17:29:28;27.56;70.29
71297;SHT31;59082;50.658;4.608;2022-08-04T17:31:54;27.35;69.29
71297;SHT31;59082;50.658;4.608;2022-08-04T17:34:21;27.34;69.80
71297;SHT31;59082;50.658;4.608;2022-08-04T17:36:50;27.29;70.29
71297;SHT31;59082;50.658;4.608;2022-08-04T17:39:18;27.19;69.45
71297;SHT31;59082;50.658;4.608;2022-08-04T17:41:45;27.19;69.75
71297;SHT31;59082;50.658;4.608;2022-08-04T17:44:11;27.08;70.92
71297;SHT31;59082;50.658;4.608;2022-08-04T17:46:38;27.08;70.34
71297;SHT31;59082;50.658;4.608;2022-08-04T17:54:20;27.14;69.39
71297;SHT31;59082;50.658;4.608;2022-08-04T17:56:50;27.16;69.28
71297;SHT31;59082;50.658;4.608;2022-08-04T18:01:44;27.22;69.54
71297;SHT31;59082;50.658;4.608;2022-08-04T18:04:32;27.14;69.69
71297;SHT31;59082;50.658;4.608;2022-08-04T18:07:06;27.01;70.01
71297;SHT31;59082;50.658;4.608;2022-08-04T18:09:49;26.74;70.53
71297;SHT31;59082;50.658;4.608;2022-08-04T18:14:49;26.50;71.26
71297;SHT31;59082;50.658;4.608;2022-08-04T18:17:32;26.32;71.82
71297;SHT31;59082;50.658;4.608;2022-08-04T18:19:59;26.21;71.42
71297;SHT31;59082;50.658;4.608;2022-08-04T18:22:26;26.19;71.80
71297;SHT31;59082;50.658;4.608;2022-08-04T18:24:52;26.02;71.86
71297;SHT31;59082;50.658;4.608;2022-08-04T18:27:20;25.94;71.97
71297;SHT31;59082;50.658;4.608;2022-08-04T18:29:47;25.82;72.01
71297;SHT31;59082;50.658;4.608;2022-08-04T18:32:13;25.65;72.42
71297;SHT31;59082;50.658;4.608;2022-08-04T18:34:39;25.57;72.74
71297;SHT31;59082;50.658;4.608;2022-08-04T18:37:05;25.41;73.04
71297;SHT31;59082;50.658;4.608;2022-08-04T18:39:30;25.37;73.17
71297;SHT31;59082;50.658;4.608;2022-08-04T18:41:56;25.12;73.32
71297;SHT31;59082;50.658;4.608;2022-08-04T18:44:22;24.95;73.41
71297;SHT31;59082;50.658;4.608;2022-08-04T18:46:48;24.73;73.82
71297;SHT31;59082;50.658;4.608;2022-08-04T18:49:14;24.65;73.94
71297;SHT31;59082;50.658;4.608;2022-08-04T18:51:39;24.54;74.30
71297;SHT31;59082;50.658;4.608;2022-08-04T18:54:06;24.47;74.48
71297;SHT31;59082;50.658;4.608;2022-08-04T18:56:32;24.51;74.45
71297;SHT31;59082;50.658;4.608;2022-08-04T18:59:01;24.51;76.70
71297;SHT31;59082;50.658;4.608;2022-08-04T19:01:27;24.67;74.66
71297;SHT31;59082;50.658;4.608;2022-08-04T19:03:53;24.61;74.93
71297;SHT31;59082;50.658;4.608;2022-08-04T19:06:19;24.45;76.86
71297;SHT31;59082;50.658;4.608;2022-08-04T19:08:44;24.34;77.81
71297;SHT31;59082;50.658;4.608;2022-08-04T19:11:10;24.07;79.71
71297;SHT31;59082;50.658;4.608;2022-08-04T19:13:35;23.69;82.37
71297;SHT31;59082;50.658;4.608;2022-08-04T19:16:01;23.37;83.51
71297;SHT31;59082;50.658;4.608;2022-08-04T19:18:27;23.30;85.02
71297;SHT31;59082;50.658;4.608;2022-08-04T19:20:54;23.24;87.83
71297;SHT31;59082;50.658;4.608;2022-08-04T19:23:19;22.70;89.12
71297;SHT31;59082;50.658;4.608;2022-08-04T19:25:46;22.41;90.56
71297;SHT31;59082;50.658;4.608;2022-08-04T19:28:11;22.21;92.41
71297;SHT31;59082;50.658;4.608;2022-08-04T19:30:38;22.12;91.77
71297;SHT31;59082;50.658;4.608;2022-08-04T19:33:03;21.90;92.72
71297;SHT31;59082;50.658;4.608;2022-08-04T19:35:29;21.69;93.86
71297;SHT31;59082;50.658;4.608;2022-08-04T19:37:55;21.74;94.21
71297;SHT31;59082;50.658;4.608;2022-08-04T19:40:20;21.64;95.30
71297;SHT31;59082;50.658;4.608;2022-08-04T19:42:46;21.40;95.25
71297;SHT31;59082;50.658;4.608;2022-08-04T19:45:11;21.40;95.98
71297;SHT31;59082;50.658;4.608;2022-08-04T19:47:37;21.54;96.84
71297;SHT31;59082;50.658;4.608;2022-08-04T19:50:04;21.54;95.74
71297;SHT31;59082;50.658;4.608;2022-08-04T19:52:30;21.61;94.80
71297;SHT31;59082;50.658;4.608;2022-08-04T19:54:55;21.60;94.48
71297;SHT31;59082;50.658;4.608;2022-08-04T19:57:21;21.56;94.27
71297;SHT31;59082;50.658;4.608;2022-08-04T19:59:46;21.39;94.41
71297;SHT31;59082;50.658;4.608;2022-08-04T20:02:12;21.33;94.25
71297;SHT31;59082;50.658;4.608;2022-08-04T20:04:38;21.35;94.36
71297;SHT31;59082;50.658;4.608;2022-08-04T20:07:03;21.30;95.79
71297;SHT31;59082;50.658;4.608;2022-08-04T20:09:29;21.23;94.44
71297;SHT31;59082;50.658;4.608;2022-08-04T20:11:55;21.06;94.76
71297;SHT31;59082;50.658;4.608;2022-08-04T20:14:20;20.94;95.07
71297;SHT31;59082;50.658;4.608;2022-08-04T20:16:47;20.90;94.39
71297;SHT31;59082;50.658;4.608;2022-08-04T20:19:13;20.73;96.40
71297;SHT31;59082;50.658;4.608;2022-08-04T20:21:39;20.57;97.13
71297;SHT31;59082;50.658;4.608;2022-08-04T20:24:04;20.58;97.34
71297;SHT31;59082;50.658;4.608;2022-08-04T20:26:30;20.71;96.25
71297;SHT31;59082;50.658;4.608;2022-08-04T20:28:56;20.68;95.70
71297;SHT31;59082;50.658;4.608;2022-08-04T20:31:21;20.73;95.60
71297;SHT31;59082;50.658;4.608;2022-08-04T20:33:47;20.48;96.72
71297;SHT31;59082;50.658;4.608;2022-08-04T20:36:12;20.39;98.84
71297;SHT31;59082;50.658;4.608;2022-08-04T20:38:38;20.17;97.64
71297;SHT31;59082;50.658;4.608;2022-08-04T20:41:03;19.85;99.32
71297;SHT31;59082;50.658;4.608;2022-08-04T20:43:29;19.75;98.84
71297;SHT31;59082;50.658;4.608;2022-08-04T20:45:54;19.81;99.26
71297;SHT31;59082;50.658;4.608;2022-08-04T20:48:20;19.61;99.79
71297;SHT31;59082;50.658;4.608;2022-08-04T20:50:46;19.60;99.23
71297;SHT31;59082;50.658;4.608;2022-08-04T20:53:11;19.65;99.99
71297;SHT31;59082;50.658;4.608;2022-08-04T20:55:37;19.53;99.69
71297;SHT31;59082;50.658;4.608;2022-08-04T20:58:02;19.51;99.99